Time;durP1;ratioP1;P1;durP2;ratioP2;P2;SDS_P1;SDS_P2;PMS_P1;PMS_P2;Temp;Humidity;BMP_temperature;BMP_pressure;BME280_temperature;BME280_humidity;BME280_pressure;Samples;Min_cycle;Max_cycle;Signal;HPM_P1;HPM_P2
2022/08/01 00:01:16;;;;;;;7.92;1.20;;;;;;;19.55;57.91;98683.95;1647804;86;21075;-80
2022/08/01 00:03:43;;;;;;;3.30;1.30;;;;;;;19.53;58.82;98685.84;1649171;86;21083;-80
2022/08/01 00:06:09;;;;;;;5.10;1.20;;;;;;;19.54;58.15;98686.71;1657472;86;21524;-79
2022/08/01 00:08:36;;;;;;;3.10;1.27;;;;;;;19.51;58.44;98685.59;1612144;88;21037;-80
2022/08/01 00:11:02;;;;;;;2.85;1.27;;;;;;;19.50;58.23;98679.48;1612492;87;21037;-80
2022/08/01 00:13:29;;;;;;;2.58;1.40;;;;;;;19.50;58.47;98678.16;1622233;88;21056;-78
2022/08/01 00:15:56;;;;;;;3.10;1.10;;;;;;;19.49;58.30;98683.05;1623273;88;21025;-80
2022/08/01 00:18:23;;;;;;;14.60;1.62;;;;;;;19.49;58.55;98680.41;1656097;86;21041;-80
2022/08/01 00:20:49;;;;;;;4.30;1.47;;;;;;;19.44;59.38;98677.27;1640579;86;21060;-80
2022/08/01 00:23:16;;;;;;;3.33;1.05;;;;;;;19.44;58.64;98668.88;1622295;88;21114;-80
2022/08/01 00:25:43;;;;;;;5.83;1.22;;;;;;;19.42;58.88;98665.50;1655968;86;21573;-78
2022/08/01 00:28:09;;;;;;;6.92;1.10;;;;;;;19.40;59.66;98661.29;1639381;87;21042;-80
2022/08/01 00:30:36;;;;;;;3.58;1.20;;;;;;;19.41;59.49;98662.96;1621842;87;21520;-78
2022/08/01 00:33:03;;;;;;;3.45;1.20;;;;;;;19.43;59.42;98666.34;1637751;87;21098;-80
2022/08/01 00:35:30;;;;;;;1.82;1.37;;;;;;;19.42;59.13;98664.66;1629021;87;21006;-80
2022/08/01 00:37:56;;;;;;;7.42;1.30;;;;;;;19.40;60.52;98658.66;1632014;88;21035;-81
2022/08/01 00:40:23;;;;;;;2.90;1.15;;;;;;;19.38;60.12;98666.66;1658553;86;21004;-80
2022/08/01 00:42:50;;;;;;;1.42;1.00;;;;;;;19.39;60.60;98671.45;1668368;86;21047;-79
2022/08/01 00:45:16;;;;;;;2.50;1.30;;;;;;;19.38;60.39;98663.19;1657275;86;21312;-81
2022/08/01 00:47:43;;;;;;;3.00;1.20;;;;;;;19.36;60.82;98663.28;1658292;86;21523;-80
2022/08/01 00:50:10;;;;;;;4.35;1.15;;;;;;;19.38;61.02;98655.28;1636706;87;20992;-80
2022/08/01 00:52:39;;;;;;;2.65;1.20;;;;;;;19.40;60.73;98657.34;1639389;87;21046;-77
2022/08/01 00:55:07;;;;;;;7.72;1.32;;;;;;;19.40;60.95;98662.61;1636791;87;20960;-80
2022/08/01 00:57:35;;;;;;;4.80;1.12;;;;;;;19.39;60.86;98667.50;1635700;87;20968;-78
2022/08/01 01:00:01;;;;;;;3.58;1.30;;;;;;;19.33;60.92;98667.43;1650777;85;21538;-78
2022/08/01 01:02:28;;;;;;;3.65;1.05;;;;;;;19.28;60.97;98659.84;1654256;85;21092;-78
2022/08/01 01:04:55;;;;;;;3.05;1.30;;;;;;;19.28;60.46;98663.80;1679296;85;21463;-79
2022/08/01 01:07:46;;;;;;;4.58;1.10;;;;;;;19.22;60.95;98660.27;1663276;85;21011;-79
2022/08/01 01:10:24;;;;;;;2.22;1.20;;;;;;;19.19;60.84;98656.50;1673020;84;21049;-80
2022/08/01 01:13:08;;;;;;;3.40;1.15;;;;;;;19.12;60.98;98661.84;1658066;84;21558;-79
2022/08/01 01:15:58;;;;;;;3.42;1.22;;;;;;;19.14;60.29;98663.03;1679748;84;21086;-80
2022/08/01 01:18:36;;;;;;;1.47;1.15;;;;;;;19.08;61.28;98657.24;1680000;84;21046;-80
2022/08/01 01:21:20;;;;;;;2.87;1.32;;;;;;;19.07;60.76;98660.81;1673778;84;21015;-80
2022/08/01 01:24:07;;;;;;;5.33;1.37;;;;;;;19.05;61.77;98663.18;1661389;85;21050;-79
2022/08/01 01:27:00;;;;;;;3.17;1.10;;;;;;;19.01;61.14;98669.13;1677762;84;21007;-80
2022/08/01 01:29:38;;;;;;;5.45;1.17;;;;;;;18.96;61.80;98670.38;1680463;84;21066;-79
2022/08/01 01:32:25;;;;;;;3.98;1.20;;;;;;;18.91;62.51;98669.37;1677939;84;21105;-79
2022/08/01 01:34:54;;;;;;;2.12;1.30;;;;;;;18.88;62.37;98665.64;1678762;85;21026;-80
2022/08/01 01:37:25;;;;;;;6.45;1.00;;;;;;;18.90;62.37;98668.14;1677494;84;21569;-81
2022/08/01 01:39:53;;;;;;;2.52;1.17;;;;;;;18.88;62.34;98665.64;1680310;84;21087;-80
2022/08/01 01:42:23;;;;;;;4.65;1.32;;;;;;;18.91;62.39;98673.80;1679032;84;21014;-79
2022/08/01 01:44:51;;;;;;;2.67;1.40;;;;;;;18.88;62.38;98663.00;1680467;85;21543;-79
2022/08/01 01:47:18;;;;;;;2.72;1.10;;;;;;;18.92;61.90;98667.56;1678911;84;21494;-79
2022/08/01 01:49:47;;;;;;;7.85;1.40;;;;;;;18.88;62.01;98668.27;1680178;84;21486;-80
2022/08/01 01:52:17;;;;;;;3.77;1.30;;;;;;;18.86;61.81;98664.41;1679512;84;21010;-80
2022/08/01 01:54:48;;;;;;;6.00;1.67;;;;;;;18.85;62.27;98664.51;1680212;84;21085;-80
2022/08/01 01:57:17;;;;;;;2.22;1.22;;;;;;;18.84;62.42;98664.12;1678320;84;21030;-80
2022/08/01 01:59:46;;;;;;;4.17;1.10;;;;;;;18.83;61.81;98667.72;1678495;84;21102;-79
2022/08/01 02:02:15;;;;;;;1.90;1.20;;;;;;;18.74;62.57;98663.88;1679297;85;21083;-79
2022/08/01 02:04:45;;;;;;;2.67;1.10;;;;;;;18.69;62.75;98667.27;1629659;88;21030;-79
2022/08/01 02:07:17;;;;;;;5.90;1.15;;;;;;;18.67;63.11;98666.53;1645699;86;21038;-81
2022/08/01 02:09:46;;;;;;;2.00;1.10;;;;;;;18.63;63.27;98659.30;1678352;84;21087;-79
2022/08/01 02:12:14;;;;;;;3.95;1.27;;;;;;;18.60;63.40;98663.91;1656731;86;21917;-81
2022/08/01 02:14:44;;;;;;;2.80;1.30;;;;;;;18.54;64.16;98664.30;1631929;86;21039;-81
2022/08/01 02:17:15;;;;;;;2.35;1.17;;;;;;;18.55;64.30;98662.90;1656676;85;21105;-81
2022/08/01 02:19:42;;;;;;;4.10;1.30;;;;;;;18.57;64.28;98661.02;1654457;85;21038;-80
2022/08/01 02:22:17;;;;;;;2.87;1.50;;;;;;;18.56;65.19;98658.47;1680511;84;21408;-80
2022/08/01 02:24:52;;;;;;;4.17;1.37;;;;;;;18.48;65.74;98656.33;1679962;84;21081;-81
2022/08/01 02:27:25;;;;;;;4.80;1.40;;;;;;;18.42;65.72;98652.33;1680686;84;21586;-81
2022/08/01 02:30:00;;;;;;;3.67;1.20;;;;;;;18.37;66.63;98646.51;1664636;85;21072;-79
2022/08/01 02:32:49;;;;;;;2.20;1.30;;;;;;;18.28;67.24;98644.45;1680182;84;21185;-79
2022/08/01 02:35:28;;;;;;;2.72;1.20;;;;;;;18.30;65.84;98653.09;1678952;84;21010;-79
2022/08/01 02:37:58;;;;;;;13.75;1.70;;;;;;;18.22;65.96;98648.80;1661338;84;22144;-80
2022/08/01 02:40:28;;;;;;;3.02;1.22;;;;;;;18.16;66.24;98652.66;1679339;85;21094;-79
2022/08/01 02:42:59;;;;;;;1.25;1.10;;;;;;;18.14;67.51;98649.75;1680536;84;21087;-79
2022/08/01 02:45:27;;;;;;;4.20;1.35;;;;;;;18.06;67.92;98645.84;1655566;85;21568;-79
2022/08/01 02:47:58;;;;;;;4.62;1.52;;;;;;;18.06;67.56;98652.42;1655571;85;21028;-79
2022/08/01 02:50:27;;;;;;;1.95;1.17;;;;;;;18.04;67.30;98650.32;1677320;85;21078;-80
2022/08/01 02:52:55;;;;;;;2.30;1.30;;;;;;;18.03;67.20;98649.97;1680366;84;21050;-79
2022/08/01 02:55:23;;;;;;;3.62;1.50;;;;;;;17.93;68.23;98657.22;1659350;85;21115;-79
2022/08/01 02:57:51;;;;;;;3.85;1.10;;;;;;;17.92;67.58;98656.36;1676094;84;21070;-79
2022/08/01 03:00:18;;;;;;;3.42;1.47;;;;;;;17.92;67.21;98651.09;1629932;87;21039;-79
2022/08/01 03:02:50;;;;;;;5.03;1.70;;;;;;;17.89;67.27;98654.77;1672802;84;21042;-80
2022/08/01 03:05:18;;;;;;;2.35;1.30;;;;;;;17.91;66.86;98661.25;1679701;85;21015;-80
2022/08/01 03:07:45;;;;;;;4.55;1.40;;;;;;;17.92;66.39;98657.67;1679748;84;21022;-80
2022/08/01 03:10:16;;;;;;;3.60;1.50;;;;;;;17.91;67.21;98660.42;1680209;85;21050;-80
2022/08/01 03:12:45;;;;;;;2.80;1.50;;;;;;;17.94;67.13;98664.16;1686048;84;21105;-80
2022/08/01 03:15:13;;;;;;;6.47;1.45;;;;;;;17.96;66.71;98663.11;1680287;84;21090;-80
2022/08/01 03:17:43;;;;;;;3.40;1.45;;;;;;;17.96;66.24;98661.80;1680380;84;21078;-80
2022/08/01 03:20:13;;;;;;;2.37;1.30;;;;;;;17.95;67.82;98661.44;1680489;85;21040;-79
2022/08/01 03:22:42;;;;;;;3.37;1.40;;;;;;;17.94;68.04;98657.10;1649237;87;21092;-81
2022/08/01 03:25:12;;;;;;;6.42;1.60;;;;;;;17.89;68.33;98657.40;1625580;87;21037;-80
2022/08/01 03:27:42;;;;;;;5.70;1.40;;;;;;;17.92;68.17;98658.14;1649730;87;21051;-80
2022/08/01 03:30:10;;;;;;;4.37;1.42;;;;;;;17.91;68.25;98659.11;1642608;86;21096;-79
2022/08/01 03:32:37;;;;;;;2.80;1.40;;;;;;;17.94;67.88;98664.16;1648538;86;21128;-81
2022/08/01 03:35:04;;;;;;;4.05;1.30;;;;;;;17.93;67.81;98665.11;1630355;87;21074;-81
2022/08/01 03:37:47;;;;;;;5.65;1.40;;;;;;;17.97;67.41;98674.50;1649474;86;21062;-80
2022/08/01 03:40:19;;;;;;;4.22;1.50;;;;;;;17.97;67.72;98675.34;1642092;86;21017;-79
2022/08/01 03:42:54;;;;;;;2.30;1.30;;;;;;;17.99;68.06;98679.20;1649442;87;21095;-80
2022/08/01 03:45:27;;;;;;;2.77;1.32;;;;;;;17.98;67.42;98677.02;1650176;87;21004;-79
2022/08/01 03:48:01;;;;;;;5.20;1.92;;;;;;;18.02;66.97;98689.03;1641977;87;21025;-80
2022/08/01 03:50:33;;;;;;;3.42;1.30;;;;;;;18.02;66.88;98686.39;1679402;84;21032;-80
2022/08/01 03:53:02;;;;;;;3.83;1.40;;;;;;;17.98;67.33;98682.75;1679909;85;21038;-80
2022/08/01 03:55:31;;;;;;;4.03;1.40;;;;;;;18.03;66.89;98689.42;1680372;84;21000;-80
2022/08/01 03:57:59;;;;;;;2.30;1.30;;;;;;;18.01;67.09;98691.30;1662386;84;21479;-80
2022/08/01 04:00:26;;;;;;;2.02;1.00;;;;;;;18.07;67.39;98690.91;1668959;84;21587;-78
2022/08/01 04:02:54;;;;;;;3.15;1.20;;;;;;;18.05;67.54;98690.16;1661426;85;21051;-79
2022/08/01 04:05:21;;;;;;;3.05;1.30;;;;;;;18.11;67.31;98698.63;1660714;85;20972;-80
2022/08/01 04:07:55;;;;;;;4.00;1.27;;;;;;;18.16;66.86;98697.85;1661557;85;21063;-80
2022/08/01 04:10:18;;;;;;;1.87;1.00;;;;;;;18.19;66.68;98696.36;1660680;85;21004;-81
2022/08/01 04:15:33;;;;;;;2.33;1.30;;;;;;;18.26;66.83;98695.88;1867637;76;22812;-80
2022/08/01 04:17:59;;;;;;;2.47;1.40;;;;;;;18.25;66.19;98699.44;1795059;78;21000;-79
2022/08/01 04:20:26;;;;;;;4.20;1.37;;;;;;;18.25;66.32;98697.29;1817546;78;21546;-79
2022/08/01 04:22:53;;;;;;;3.05;1.30;;;;;;;18.29;66.03;98694.84;1815283;78;21058;-79
2022/08/01 04:25:33;;;;;;;5.33;1.27;;;;;;;18.29;66.40;98691.73;1825374;78;20962;-80
2022/08/01 04:28:05;;;;;;;5.37;1.45;;;;;;;18.34;66.55;98694.05;1798035;78;21022;-79
2022/08/01 04:30:35;;;;;;;2.80;1.32;;;;;;;18.39;67.01;98695.10;1824509;78;20995;-81
2022/08/01 04:33:05;;;;;;;2.70;1.32;;;;;;;18.47;66.81;98701.55;1828024;78;21023;-81
2022/08/01 04:35:33;;;;;;;6.22;1.30;;;;;;;18.58;66.94;98703.97;1808751;78;21011;-79
2022/08/01 04:38:02;;;;;;;3.83;1.20;;;;;;;18.67;66.76;98708.17;1821598;78;21011;-79
2022/08/01 04:40:30;;;;;;;4.05;1.30;;;;;;;18.77;66.44;98706.27;1791851;78;21033;-79
2022/08/01 04:42:57;;;;;;;5.55;1.90;;;;;;;18.85;66.14;98707.96;1825781;78;21022;-79
2022/08/01 04:45:25;;;;;;;2.70;1.57;;;;;;;18.89;66.08;98713.40;1822316;78;21573;-80
2022/08/01 04:47:52;;;;;;;3.30;1.30;;;;;;;18.92;65.85;98702.68;1824233;78;20989;-79
2022/08/01 04:50:21;;;;;;;2.58;1.50;;;;;;;18.99;65.61;98706.58;1809342;78;21065;-81
2022/08/01 04:52:47;;;;;;;2.37;1.40;;;;;;;19.07;65.19;98709.55;1814615;78;21006;-79
2022/08/01 04:55:14;;;;;;;3.47;1.50;;;;;;;19.12;65.10;98707.95;1804350;78;21028;-79
2022/08/01 04:57:45;;;;;;;4.37;1.37;;;;;;;19.06;65.42;98710.51;1800121;78;20994;-80
2022/08/01 05:00:16;;;;;;;3.98;1.60;;;;;;;19.08;65.19;98704.66;1805437;78;20996;-82
2022/08/01 05:02:43;;;;;;;2.40;1.40;;;;;;;19.03;65.06;98709.86;1822621;78;21260;-80
2022/08/01 05:05:10;;;;;;;5.40;1.50;;;;;;;19.06;65.19;98705.72;1826773;78;20969;-81
2022/08/01 05:07:36;;;;;;;6.28;1.47;;;;;;;19.02;65.32;98712.11;1825129;78;21053;-81
2022/08/01 05:10:05;;;;;;;3.40;1.40;;;;;;;18.99;65.26;98706.58;1823541;78;20988;-80
2022/08/01 05:12:31;;;;;;;2.98;1.55;;;;;;;18.92;65.67;98705.76;1821922;78;21049;-80
2022/08/01 05:15:01;;;;;;;5.28;1.30;;;;;;;18.94;65.70;98713.95;1813778;78;21734;-79
2022/08/01 05:17:28;;;;;;;4.42;1.30;;;;;;;18.93;65.87;98710.09;1803880;78;21035;-80
2022/08/01 05:19:55;;;;;;;2.35;1.40;;;;;;;18.96;65.90;98709.88;1818394;79;20971;-80
2022/08/01 05:22:22;;;;;;;2.37;1.25;;;;;;;18.91;66.01;98716.78;1820305;78;20987;-80
2022/08/01 05:24:48;;;;;;;3.62;1.50;;;;;;;18.86;66.22;98718.41;1820697;78;20960;-81
2022/08/01 05:27:15;;;;;;;4.85;1.37;;;;;;;18.92;66.22;98724.20;1792735;79;21478;-81
2022/08/01 05:29:42;;;;;;;2.98;1.20;;;;;;;18.88;66.31;98726.21;1824497;78;21003;-81
2022/08/01 05:32:09;;;;;;;3.87;1.47;;;;;;;18.88;66.44;98731.48;1795817;78;21004;-80
2022/08/01 05:34:36;;;;;;;3.25;1.20;;;;;;;18.86;65.90;98726.30;1820445;79;20991;-80
2022/08/01 05:37:02;;;;;;;8.40;1.55;;;;;;;18.90;66.13;98733.98;1817263;79;20936;-80
2022/08/01 05:39:29;;;;;;;2.50;1.55;;;;;;;18.95;66.03;98739.81;1812173;79;21079;-84
2022/08/01 05:41:56;;;;;;;2.67;1.42;;;;;;;18.96;66.08;98737.54;1804795;78;20989;-83
2022/08/01 05:44:23;;;;;;;4.20;1.30;;;;;;;19.00;66.15;98740.34;1810243;79;21004;-81
2022/08/01 05:46:50;;;;;;;4.15;1.30;;;;;;;19.09;65.97;98733.16;1807254;79;20956;-83
2022/08/01 05:49:16;;;;;;;2.70;1.35;;;;;;;19.18;65.63;98735.66;1806840;79;20980;-82
2022/08/01 05:51:43;;;;;;;1.90;1.22;;;;;;;19.19;65.73;98733.41;1810634;79;21595;-82
2022/08/01 05:54:10;;;;;;;2.95;1.50;;;;;;;19.25;65.43;98731.20;1802929;79;20964;-83
2022/08/01 05:56:36;;;;;;;4.12;1.75;;;;;;;19.37;65.07;98737.92;1814905;79;21547;-88
2022/08/01 05:59:03;;;;;;;3.25;1.30;;;;;;;19.42;64.77;98747.22;1804874;79;21039;-85
2022/08/01 06:01:30;;;;;;;1.98;1.30;;;;;;;19.52;64.66;98750.53;1761196;80;21035;-85
2022/08/01 06:03:56;;;;;;;5.08;1.50;;;;;;;19.58;64.48;98744.88;1728515;83;21079;-84
2022/08/01 06:06:23;;;;;;;4.50;1.30;;;;;;;19.71;64.06;98740.91;1755225;79;21038;-86
2022/08/01 06:08:50;;;;;;;3.65;1.65;;;;;;;19.76;63.86;98741.01;1723788;82;21014;-87
2022/08/01 06:11:17;;;;;;;9.40;1.40;;;;;;;19.87;63.74;98744.21;1721788;81;20989;-87
2022/08/01 06:13:43;;;;;;;4.37;1.37;;;;;;;19.96;63.29;98739.63;1756499;81;21035;-82
2022/08/01 06:16:10;;;;;;;2.25;1.40;;;;;;;20.00;63.45;98749.02;1734236;82;21022;-87
2022/08/01 06:18:36;;;;;;;3.22;1.60;;;;;;;20.10;62.94;98749.23;1740844;82;20995;-85
2022/08/01 06:21:03;;;;;;;1.57;1.20;;;;;;;20.15;62.76;98748.89;1736275;81;21013;-88
2022/08/01 06:23:30;;;;;;;4.42;1.57;;;;;;;20.17;62.54;98739.07;1736102;83;21051;-83
2022/08/01 06:25:58;;;;;;;3.30;1.30;;;;;;;20.25;62.51;98740.69;1735600;82;20959;-83
2022/08/01 06:28:24;;;;;;;2.75;1.20;;;;;;;20.37;61.99;98743.81;1730807;81;21004;-89
2022/08/01 06:30:51;;;;;;;2.65;1.30;;;;;;;20.38;62.03;98746.80;1737957;81;21064;-88
2022/08/01 06:33:18;;;;;;;3.65;1.12;;;;;;;20.46;61.91;98740.50;1730539;81;21035;-82
2022/08/01 06:35:45;;;;;;;2.40;1.40;;;;;;;20.54;61.58;98741.27;1733263;81;21110;-84
2022/08/01 06:38:11;;;;;;;3.02;1.50;;;;;;;20.61;61.60;98735.95;1743934;80;21018;-83
2022/08/01 06:40:38;;;;;;;3.47;1.30;;;;;;;20.61;61.43;98740.38;1741376;80;21054;-82
2022/08/01 06:43:05;;;;;;;2.60;1.40;;;;;;;20.58;61.26;98736.62;1741431;80;20976;-83
2022/08/01 06:45:51;;;;;;;2.27;1.37;;;;;;;20.50;61.53;98739.80;1736158;81;21129;-84
2022/08/01 06:48:22;;;;;;;3.92;1.37;;;;;;;20.58;61.45;98747.18;1687138;81;20979;-83
2022/08/01 06:50:49;;;;;;;2.45;1.50;;;;;;;20.57;61.46;98742.38;1739055;81;21159;-81
2022/08/01 06:53:15;;;;;;;2.42;1.30;;;;;;;20.60;61.28;98747.95;1727653;81;20979;-81
2022/08/01 06:55:42;;;;;;;1.98;1.30;;;;;;;20.71;61.08;98738.78;1735044;81;20996;-84
2022/08/01 06:58:09;;;;;;;3.37;1.17;;;;;;;20.77;60.93;98734.37;1731149;81;21574;-82
2022/08/01 07:00:35;;;;;;;4.08;1.30;;;;;;;20.86;60.69;98743.41;1733050;81;21000;-84
2022/08/01 07:03:02;;;;;;;2.05;1.27;;;;;;;21.00;60.66;98737.11;1733470;81;21335;-83
2022/08/01 07:05:30;;;;;;;5.62;1.42;;;;;;;21.21;60.35;98741.30;1736274;81;21015;-83
2022/08/01 07:07:57;;;;;;;2.05;1.42;;;;;;;21.39;60.01;98743.05;1749486;81;21349;-81
2022/08/01 07:10:25;;;;;;;2.60;1.30;;;;;;;21.46;59.26;98745.59;1714646;82;21539;-83
2022/08/01 07:12:51;;;;;;;4.95;1.50;;;;;;;21.52;59.28;98743.81;1715476;82;21034;-84
2022/08/01 07:15:20;;;;;;;2.45;1.30;;;;;;;21.53;59.38;98744.19;1717733;82;21090;-81
2022/08/01 07:17:46;;;;;;;2.05;1.40;;;;;;;21.61;58.70;98740.97;1763328;80;21028;-83
2022/08/01 07:20:13;;;;;;;1.50;1.10;;;;;;;21.55;58.47;98746.23;1744586;80;21025;-87
2022/08/01 07:22:40;;;;;;;5.17;1.30;;;;;;;21.55;58.72;98738.30;1735623;82;21020;-84
2022/08/01 07:25:08;;;;;;;3.05;1.45;;;;;;;21.63;58.48;98737.23;1764587;79;20984;-80
2022/08/01 07:27:36;;;;;;;2.92;1.40;;;;;;;21.72;58.65;98738.80;1729047;82;21020;-83
2022/08/01 07:30:05;;;;;;;1.95;1.22;;;;;;;21.84;58.29;98733.89;1763859;80;21585;-84
2022/08/01 07:32:32;;;;;;;2.75;1.30;;;;;;;21.95;57.98;98739.20;1731879;82;21055;-86
2022/08/01 07:34:58;;;;;;;1.98;1.17;;;;;;;22.02;57.67;98736.45;1734424;82;20991;-86
2022/08/01 07:37:25;;;;;;;3.67;1.30;;;;;;;21.99;57.36;98738.00;1737051;82;21020;-85
2022/08/01 07:39:51;;;;;;;1.77;1.15;;;;;;;22.01;57.38;98745.83;1737021;80;22441;-83
2022/08/01 07:42:18;;;;;;;3.80;1.30;;;;;;;22.04;57.76;98741.14;1756801;80;21050;-83
2022/08/01 07:44:45;;;;;;;2.70;1.27;;;;;;;22.10;57.37;98734.98;1748120;81;21029;-84
2022/08/01 07:47:11;;;;;;;2.15;1.30;;;;;;;22.19;57.19;98731.62;1741883;81;21031;-82
2022/08/01 07:49:39;;;;;;;6.28;1.30;;;;;;;22.34;57.37;98737.08;1745815;81;21011;-84
2022/08/01 07:52:06;;;;;;;2.87;1.60;;;;;;;22.50;56.56;98735.83;1747572;81;22666;-83
2022/08/01 07:54:32;;;;;;;4.42;1.70;;;;;;;22.72;55.30;98738.45;1752153;81;21026;-84
2022/08/01 07:56:59;;;;;;;3.27;1.40;;;;;;;22.84;55.68;98745.90;1740753;81;21059;-84
2022/08/01 07:59:25;;;;;;;6.08;1.85;;;;;;;22.98;55.06;98743.45;1750858;81;21004;-84
2022/08/01 08:01:52;;;;;;;5.78;1.27;;;;;;;23.07;54.53;98748.00;1743138;81;20981;-85
2022/08/01 08:04:19;;;;;;;2.72;1.15;;;;;;;23.20;54.26;98742.05;1746973;81;21000;-83
2022/08/01 08:06:47;;;;;;;5.65;1.37;;;;;;;23.23;54.24;98744.44;1745590;81;21729;-82
2022/08/01 08:09:15;;;;;;;4.00;1.30;;;;;;;23.33;54.04;98741.03;1746407;81;21039;-87
2022/08/01 08:11:46;;;;;;;2.02;1.30;;;;;;;23.35;53.53;98744.39;1745793;81;21460;-82
2022/08/01 08:14:13;;;;;;;3.10;1.30;;;;;;;23.20;53.35;98746.03;1744635;81;21248;-82
2022/08/01 08:16:39;;;;;;;4.60;1.47;;;;;;;23.15;53.12;98748.20;1741093;81;21000;-84
2022/08/01 08:19:06;;;;;;;1.90;1.20;;;;;;;22.89;53.82;98756.11;1745790;81;21076;-81
2022/08/01 08:21:33;;;;;;;2.47;1.30;;;;;;;22.86;54.01;98755.89;1744442;81;21547;-83
2022/08/01 08:26:48;;;;;;;2.05;1.40;;;;;;;22.43;54.67;98753.54;1743184;81;21047;-81
2022/08/01 08:29:15;;;;;;;4.35;1.25;;;;;;;22.28;55.19;98763.18;1747847;81;21008;-82
2022/08/01 08:31:42;;;;;;;3.47;1.30;;;;;;;22.18;55.62;98768.31;1740794;81;21002;-80
2022/08/01 08:34:09;;;;;;;5.75;1.45;;;;;;;22.02;56.24;98766.89;1738242;81;21043;-83
2022/08/01 08:36:35;;;;;;;14.20;1.42;;;;;;;21.93;56.58;98771.56;1740508;81;21508;-83
2022/08/01 08:39:05;;;;;;;5.50;1.40;;;;;;;21.89;56.85;98770.11;1740254;81;21003;-82
2022/08/01 08:41:34;;;;;;;6.47;1.65;;;;;;;21.85;57.31;98780.09;1741465;81;21367;-81
2022/08/01 08:44:05;;;;;;;8.98;2.00;;;;;;;21.81;58.32;98775.98;1743825;81;20982;-82
2022/08/01 08:46:33;;;;;;;3.05;1.77;;;;;;;21.70;59.78;98779.09;1741769;81;21059;-80
2022/08/01 08:49:03;;;;;;;4.25;1.67;;;;;;;21.59;59.69;98778.59;1744821;81;21090;-82
2022/08/01 08:51:36;;;;;;;2.52;1.40;;;;;;;21.45;60.28;98788.89;1742301;81;21610;-82
2022/08/01 08:54:05;;;;;;;2.60;1.50;;;;;;;21.40;61.02;98784.38;1743713;81;22557;-81
2022/08/01 08:56:34;;;;;;;6.30;1.35;;;;;;;21.35;60.95;98779.44;1744791;81;21055;-80
2022/08/01 08:59:03;;;;;;;5.42;1.50;;;;;;;21.30;61.67;98776.28;1743681;81;21120;-82
2022/08/01 09:01:33;;;;;;;4.97;1.47;;;;;;;21.25;63.28;98775.31;1745778;81;20988;-84
2022/08/01 09:04:01;;;;;;;6.30;1.55;;;;;;;21.15;63.07;98773.45;1740275;80;21021;-82
2022/08/01 09:06:29;;;;;;;5.67;1.60;;;;;;;21.14;63.77;98773.09;1744464;81;21047;-80
2022/08/01 09:08:57;;;;;;;4.05;1.40;;;;;;;21.29;63.55;98771.97;1741550;81;21015;-81
2022/08/01 09:11:24;;;;;;;2.90;1.40;;;;;;;21.32;62.65;98774.85;1758857;80;21017;-82
2022/08/01 09:14:14;;;;;;;2.62;1.57;;;;;;;21.30;62.69;98777.61;1735227;82;21171;-83
2022/08/01 09:16:44;;;;;;;2.47;1.52;;;;;;;21.33;62.28;98781.36;1736438;82;21032;-80
2022/08/01 09:19:19;;;;;;;2.87;1.45;;;;;;;21.42;62.03;98778.49;1728186;82;21253;-81
2022/08/01 09:21:59;;;;;;;2.77;1.30;;;;;;;21.53;61.54;98785.19;1736861;82;21019;-86
2022/08/01 09:24:28;;;;;;;5.15;1.40;;;;;;;21.72;61.66;98784.62;1736340;82;21582;-82
2022/08/01 09:26:55;;;;;;;2.65;1.65;;;;;;;21.83;61.03;98774.55;1728953;82;21607;-80
2022/08/01 09:29:26;;;;;;;5.90;1.42;;;;;;;21.94;59.94;98772.39;1732565;82;21721;-81
2022/08/01 09:31:53;;;;;;;3.58;1.47;;;;;;;22.09;60.34;98777.00;1739000;82;21028;-82
2022/08/01 09:34:30;;;;;;;7.80;1.67;;;;;;;22.20;59.31;98774.34;1730358;82;21023;-79
2022/08/01 09:36:59;;;;;;;3.30;1.47;;;;;;;22.34;58.80;98791.82;1738678;82;21034;-80
2022/08/01 09:39:30;;;;;;;5.28;1.30;;;;;;;22.33;58.82;98788.83;1725165;82;21010;-81
2022/08/01 09:42:01;;;;;;;3.10;1.40;;;;;;;22.35;58.18;98783.77;1741250;80;21010;-80
2022/08/01 09:44:43;;;;;;;2.67;1.32;;;;;;;22.31;58.55;98784.97;1743499;80;21424;-79
2022/08/01 09:47:11;;;;;;;8.50;1.42;;;;;;;22.40;58.38;98774.13;1732067;82;21052;-80
2022/08/01 09:49:41;;;;;;;4.22;1.22;;;;;;;22.39;58.21;98785.70;1733047;82;21533;-80
2022/08/01 09:52:20;;;;;;;3.77;1.35;;;;;;;22.41;57.90;98777.98;1735774;82;21075;-78
2022/08/01 09:54:59;;;;;;;3.98;1.30;;;;;;;22.37;58.03;98781.84;1729932;82;21019;-81
2022/08/01 09:57:27;;;;;;;2.25;1.32;;;;;;;22.41;57.73;98785.92;1766571;80;21606;-79
2022/08/01 09:59:58;;;;;;;2.35;1.20;;;;;;;22.34;57.54;98782.09;1762949;80;21476;-79
2022/08/01 10:02:38;;;;;;;3.37;2.02;;;;;;;22.37;57.96;98783.16;1768107;80;21015;-82
2022/08/01 10:05:08;;;;;;;6.47;1.30;;;;;;;22.46;58.06;98770.98;1752218;80;21087;-79
2022/08/01 10:07:38;;;;;;;1.92;1.20;;;;;;;22.44;57.92;98779.53;1736577;82;21041;-79
2022/08/01 10:10:15;;;;;;;4.85;1.32;;;;;;;22.43;57.80;98790.63;1734890;82;21646;-81
2022/08/01 10:12:43;;;;;;;2.37;1.30;;;;;;;22.37;58.02;98792.43;1731324;82;21025;-80
2022/08/01 10:15:10;;;;;;;3.65;1.20;;;;;;;22.49;58.06;98801.70;1752186;80;21031;-80
2022/08/01 10:17:39;;;;;;;5.97;1.35;;;;;;;22.64;58.01;98798.69;1760548;80;21048;-80
2022/08/01 10:20:08;;;;;;;8.30;1.40;;;;;;;22.80;57.58;98808.03;1768467;80;20995;-80
2022/08/01 10:22:35;;;;;;;2.60;1.45;;;;;;;22.91;57.39;98807.19;1749194;80;21046;-78
2022/08/01 10:25:05;;;;;;;1.92;1.30;;;;;;;23.02;56.70;98807.20;1766654;80;20999;-80
2022/08/01 10:27:34;;;;;;;2.72;1.40;;;;;;;22.95;56.50;98802.83;1765067;80;21497;-80
2022/08/01 10:30:05;;;;;;;3.30;1.30;;;;;;;22.91;56.38;98793.45;1768434;80;20997;-79
2022/08/01 10:32:34;;;;;;;2.08;1.10;;;;;;;22.95;56.61;98799.34;1742732;81;21015;-80
2022/08/01 10:35:14;;;;;;;;;;;;;;;;;;;;;
2022/08/01 10:37:57;;;;;;;4.90;1.30;;;;;;;22.80;56.93;98799.63;1750123;80;21020;-81
2022/08/01 10:40:22;;;;;;;2.20;1.27;;;;;;;22.71;57.05;98790.24;1764696;80;21522;-80
2022/08/01 10:42:50;;;;;;;2.10;1.27;;;;;;;22.73;57.03;98791.80;1743471;81;21103;-81
2022/08/01 10:45:17;;;;;;;3.17;1.30;;;;;;;22.70;57.26;98788.09;1736451;81;21383;-80
2022/08/01 10:48:33;;;;;;;1.75;1.30;;;;;;;22.70;57.20;98792.06;1742124;81;20976;-81
2022/08/01 10:51:06;;;;;;;1.70;1.15;;;;;;;22.69;57.51;98790.36;1745199;81;21011;-82
2022/08/01 10:53:33;;;;;;;1.90;1.30;;;;;;;22.77;57.50;98790.58;1743614;81;22275;-80
2022/08/01 10:56:03;;;;;;;1.77;1.02;;;;;;;22.77;57.62;98797.70;1749379;81;21000;-81
2022/08/01 10:58:37;;;;;;;1.22;0.98;;;;;;;22.79;57.62;98789.14;1744311;81;22591;-81
2022/08/01 11:01:26;;;;;;;2.83;1.05;;;;;;;22.73;57.83;98798.42;1739183;81;21588;-82
2022/08/01 11:04:04;;;;;;;4.70;1.30;;;;;;;22.77;57.94;98795.88;1742541;81;21474;-83
2022/08/01 11:06:55;;;;;;;2.05;1.20;;;;;;;22.69;58.10;98794.33;1747070;81;21019;-82
2022/08/01 11:09:29;;;;;;;1.52;1.10;;;;;;;22.73;58.00;98797.09;1766375;80;21012;-81
2022/08/01 11:12:09;;;;;;;1.70;1.10;;;;;;;22.72;58.41;98799.41;1770442;80;21004;-82
2022/08/01 11:15:00;;;;;;;3.77;1.15;;;;;;;22.61;58.33;98790.13;1764819;80;21548;-81
2022/08/01 11:17:35;;;;;;;3.72;1.00;;;;;;;22.62;58.26;98785.17;1749179;81;21055;-81
2022/08/01 11:20:18;;;;;;;2.65;1.10;;;;;;;22.70;57.94;98794.70;1765362;80;21003;-82
2022/08/01 11:23:05;;;;;;;1.55;0.90;;;;;;;22.71;58.26;98793.73;1766714;80;21771;-81
2022/08/01 11:25:46;;;;;;;4.12;1.12;;;;;;;22.67;58.05;98790.13;1763213;80;21153;-83
2022/08/01 11:28:25;;;;;;;2.02;1.00;;;;;;;22.76;58.12;98792.89;1755580;81;20959;-82
2022/08/01 11:31:12;;;;;;;1.02;0.90;;;;;;;22.87;57.69;98789.36;1758764;81;21564;-81
2022/08/01 11:33:47;;;;;;;1.42;0.90;;;;;;;22.90;57.70;98788.27;1746445;80;21279;-81
2022/08/01 11:36:19;;;;;;;1.47;0.90;;;;;;;22.99;57.60;98796.80;1747955;81;21003;-82
2022/08/01 11:39:00;;;;;;;2.15;1.15;;;;;;;22.94;57.65;98788.38;1751621;81;21023;-82
2022/08/01 11:41:33;;;;;;;0.93;0.82;;;;;;;22.91;58.04;98788.14;1730361;82;21059;-85
2022/08/01 11:44:08;;;;;;;0.85;0.85;;;;;;;22.95;58.02;98784.77;1757655;81;21319;-84
2022/08/01 11:47:07;;;;;;;3.30;1.17;;;;;;;23.11;58.08;98785.23;1752444;81;21011;-82
2022/08/01 11:49:47;;;;;;;3.20;1.20;;;;;;;23.25;58.00;98782.77;1755945;81;20952;-85
2022/08/01 11:52:27;;;;;;;4.92;1.30;;;;;;;23.39;57.92;98782.46;1772078;81;21007;-84
2022/08/01 11:55:07;;;;;;;2.02;1.20;;;;;;;23.62;57.06;98770.42;1760283;81;21015;-83